Forside
METAR-TAF:

METAR-TAF

Lufthavne :

Chicago O'Hare International Airport

Chicago, Illinois, USA

Breddekreds: 41-58-47N, længdekreds: 087-54-16W, højde: 203 m

Aktuelle vejr

Denne rapport blev lavet for 48 minutter siden, kl. 09:51 UTC
Vind stille
Temperatur 11°C
Fugtighed 82%
Tryk 1022 hPa
Sigt: 16.1 km
skyfri

METAR: KORD 230951Z 00000KT 10SM CLR 11/08 A3017 RMK AO2 SLP217 T01060083

Tid: 05:39 (10:39 UTC)

Vejrudsigter

Denne rapport blev lavet for 1 time og 41 minutter siden, kl. 08:58 UTC
Foreløbig gælder fra 23 på 09 UTC til 24 på 12 UTC
Vind 3 kt fra østsydøst
Sigt: 10 km
skyfri
Fra 23 på 1700 UTC
Vind 11 kt fra øst
Sigt: 10 km
skyfri
Fra 24 på 0100 UTC
Vind 5 kt fra østsydøst
Sigt: 10 km
skyfri

TAF: KORD 230858Z 2309/2412 12003KT P6SM SKC FM231700 09011KT P6SM SKC FM240100 11005KT P6SM SKC

Vejrobservationer og prognoser fra mere end 4000 lufthavne (METAR og TAF).

De gule og røde prikker repræsenterer de meteorologiske stationer.

Flyt musen over at se navnet på stationen.

Så klik over at se vejr observationer og prognoser.

At skifte det kort: Klik på de grønne knapper med et sort kors for at zoome ind; på den grønne knap med en bindestreg for at zoome ud; eller på de grønne pile for tilstødende kort.


METAR-TAF: